Time;durP1;ratioP1;P1;durP2;ratioP2;P2;SDS_P1;SDS_P2;PMS_P1;PMS_P2;Temp;Humidity;BMP_temperature;BMP_pressure;BME280_temperature;BME280_humidity;BME280_pressure;Samples;Min_cycle;Max_cycle;Signal;HPM_P1;HPM_P2
2023/05/02 00:01:46;;;;;;;7.87;6.60;;;;;;;;;;5079242;28;20495;-66
2023/05/02 00:04:14;;;;;;;7.43;5.93;;;;;;;;;;5080201;28;20452;-66
2023/05/02 00:06:41;;;;;;;6.40;5.80;;;;;;;;;;5080659;28;20471;-66
2023/05/02 00:09:07;;;;;;;5.30;4.80;;;;;;;;;;5079864;28;20906;-67
2023/05/02 00:11:34;;;;;;;6.10;5.50;;;;;;;;;;5080147;28;20472;-67
2023/05/02 00:14:00;;;;;;;6.17;5.57;;;;;;;;;;5080295;28;20452;-67
2023/05/02 00:16:26;;;;;;;7.00;5.83;;;;;;;;;;5079092;28;20480;-67
2023/05/02 00:18:53;;;;;;;5.83;5.23;;;;;;;;;;5079716;28;20480;-67
2023/05/02 00:21:21;;;;;;;6.30;5.70;;;;;;;;;;5078209;28;20545;-67
2023/05/02 00:23:47;;;;;;;8.43;6.93;;;;;;;;;;5081619;28;20444;-68
2023/05/02 00:26:14;;;;;;;5.87;5.27;;;;;;;;;;5079753;28;20480;-67
2023/05/02 00:28:40;;;;;;;5.77;5.27;;;;;;;;;;5080162;28;20451;-66
2023/05/02 00:31:07;;;;;;;6.10;5.60;;;;;;;;;;5080062;28;20468;-66
2023/05/02 00:33:33;;;;;;;6.60;5.33;;;;;;;;;;5091802;28;20459;-66
2023/05/02 00:36:00;;;;;;;6.80;6.17;;;;;;;;;;5086462;28;20497;-67
2023/05/02 00:38:27;;;;;;;6.50;5.90;;;;;;;;;;5084584;28;20471;-66
2023/05/02 00:40:54;;;;;;;8.30;7.23;;;;;;;;;;5080051;28;20503;-66
2023/05/02 00:43:20;;;;;;;6.60;5.70;;;;;;;;;;5082185;28;20476;-66
2023/05/02 00:45:47;;;;;;;6.60;6.00;;;;;;;;;;5079499;28;20483;-66
2023/05/02 00:48:13;;;;;;;7.77;6.83;;;;;;;;;;5081043;28;21017;-66
2023/05/02 00:50:40;;;;;;;9.40;7.13;;;;;;;;;;5079693;28;20539;-66
2023/05/02 00:53:07;;;;;;;8.40;6.90;;;;;;;;;;5079433;28;20455;-66
2023/05/02 00:55:35;;;;;;;8.43;7.63;;;;;;;;;;5079698;28;20472;-66
2023/05/02 00:58:03;;;;;;;10.13;7.77;;;;;;;;;;5079716;28;20451;-66
2023/05/02 01:00:31;;;;;;;12.37;10.37;;;;;;;;;;5079351;28;20617;-66
2023/05/02 01:03:05;;;;;;;15.70;10.50;;;;;;;;;;5079321;28;20515;-66
2023/05/02 01:05:36;;;;;;;11.43;9.27;;;;;;;;;;5080214;28;20495;-66
2023/05/02 01:08:10;;;;;;;12.60;11.30;;;;;;;;;;5082486;28;20472;-66
2023/05/02 01:10:48;;;;;;;14.90;11.10;;;;;;;;;;5079498;28;20509;-66
2023/05/02 01:13:20;;;;;;;14.47;12.80;;;;;;;;;;5081697;28;21053;-66
2023/05/02 01:15:48;;;;;;;19.07;14.80;;;;;;;;;;5084868;28;20467;-66
2023/05/02 01:18:17;;;;;;;19.20;16.70;;;;;;;;;;5087108;28;20467;-66
2023/05/02 01:20:44;;;;;;;18.40;16.37;;;;;;;;;;5082984;28;20463;-66
2023/05/02 01:23:13;;;;;;;21.97;17.83;;;;;;;;;;5082913;28;20506;-66
2023/05/02 01:25:49;;;;;;;21.70;18.07;;;;;;;;;;5082592;28;20480;-66
2023/05/02 01:28:21;;;;;;;22.50;19.17;;;;;;;;;;5079587;28;21010;-66
2023/05/02 01:30:50;;;;;;;26.13;20.07;;;;;;;;;;5082076;28;20495;-67
2023/05/02 01:33:17;;;;;;;31.70;21.80;;;;;;;;;;5084159;28;20455;-66
2023/05/02 01:35:44;;;;;;;32.60;22.23;;;;;;;;;;5075805;28;20467;-66
2023/05/02 01:38:14;;;;;;;29.83;23.63;;;;;;;;;;5083189;28;20479;-65
2023/05/02 01:40:41;;;;;;;30.87;23.50;;;;;;;;;;5081490;28;20490;-65
2023/05/02 01:43:08;;;;;;;28.33;22.80;;;;;;;;;;5082256;28;20530;-65
2023/05/02 01:45:35;;;;;;;31.70;23.87;;;;;;;;;;5081604;28;20999;-65
2023/05/02 01:48:05;;;;;;;32.73;23.37;;;;;;;;;;5083117;28;20476;-65
2023/05/02 01:50:32;;;;;;;31.80;24.27;;;;;;;;;;5076529;28;20488;-65
2023/05/02 01:53:00;;;;;;;30.13;23.93;;;;;;;;;;5077977;28;20472;-65
2023/05/02 01:55:27;;;;;;;31.13;25.40;;;;;;;;;;5088875;28;21011;-65
2023/05/02 01:57:54;;;;;;;33.83;25.60;;;;;;;;;;5083427;28;20455;-64
2023/05/02 02:00:22;;;;;;;32.17;25.17;;;;;;;;;;5081335;28;20464;-64
2023/05/02 02:02:48;;;;;;;35.27;25.50;;;;;;;;;;5085840;28;20531;-64
2023/05/02 02:05:18;;;;;;;33.70;26.33;;;;;;;;;;5087604;28;20451;-63
2023/05/02 02:07:45;;;;;;;29.87;23.80;;;;;;;;;;5084810;28;20479;-64
2023/05/02 02:10:11;;;;;;;27.53;22.73;;;;;;;;;;5082945;28;20443;-64
2023/05/02 02:12:39;;;;;;;32.20;23.87;;;;;;;;;;5094111;28;20458;-65
2023/05/02 02:15:08;;;;;;;31.90;21.93;;;;;;;;;;5081697;28;20970;-64
2023/05/02 02:17:37;;;;;;;24.63;19.47;;;;;;;;;;5082377;28;20454;-65
2023/05/02 02:20:05;;;;;;;28.23;20.90;;;;;;;;;;5088639;28;21438;-64
2023/05/02 02:22:35;;;;;;;27.83;19.87;;;;;;;;;;5082440;28;20566;-65
2023/05/02 02:25:03;;;;;;;29.50;19.90;;;;;;;;;;5081311;28;20936;-65
2023/05/02 02:27:29;;;;;;;26.53;18.70;;;;;;;;;;5085016;28;20507;-65
2023/05/02 02:29:56;;;;;;;26.67;17.93;;;;;;;;;;5083235;28;20479;-65
2023/05/02 02:32:23;;;;;;;26.83;18.80;;;;;;;;;;5082101;28;20899;-64
2023/05/02 02:34:50;;;;;;;23.93;18.20;;;;;;;;;;5081665;28;20976;-65
2023/05/02 02:37:18;;;;;;;25.33;19.20;;;;;;;;;;5081946;28;20472;-65
2023/05/02 02:39:50;;;;;;;26.50;19.70;;;;;;;;;;5081826;28;20462;-65
2023/05/02 02:42:22;;;;;;;27.60;19.53;;;;;;;;;;5084264;27;20522;-65
2023/05/02 02:44:54;;;;;;;28.63;19.63;;;;;;;;;;5081619;28;20539;-65
2023/05/02 02:47:23;;;;;;;30.03;19.43;;;;;;;;;;5081323;28;20479;-64
2023/05/02 02:49:51;;;;;;;32.13;20.63;;;;;;;;;;5091735;28;20440;-65
2023/05/02 02:52:21;;;;;;;32.00;21.33;;;;;;;;;;5081327;28;20482;-65
2023/05/02 02:54:52;;;;;;;25.70;18.23;;;;;;;;;;5081504;28;20452;-64
2023/05/02 02:57:24;;;;;;;28.43;20.73;;;;;;;;;;5087456;28;20480;-65
2023/05/02 02:59:55;;;;;;;28.70;20.20;;;;;;;;;;5085707;28;20456;-65
2023/05/02 03:02:22;;;;;;;28.10;20.57;;;;;;;;;;5080827;28;20506;-65
2023/05/02 03:04:51;;;;;;;28.47;18.50;;;;;;;;;;5078499;28;20463;-65
2023/05/02 03:07:17;;;;;;;25.27;17.77;;;;;;;;;;5083839;28;20480;-64
2023/05/02 03:09:45;;;;;;;25.97;18.07;;;;;;;;;;5083144;28;20448;-65
2023/05/02 03:12:12;;;;;;;28.03;19.10;;;;;;;;;;5085716;28;20472;-65
2023/05/02 03:14:39;;;;;;;27.40;19.90;;;;;;;;;;5080911;28;20491;-65
2023/05/02 03:17:07;;;;;;;31.33;20.23;;;;;;;;;;5080875;28;20603;-65
2023/05/02 03:19:33;;;;;;;24.73;18.63;;;;;;;;;;5082372;28;20452;-65
2023/05/02 03:21:59;;;;;;;24.30;18.03;;;;;;;;;;5083705;28;20559;-65
2023/05/02 03:24:26;;;;;;;26.53;18.77;;;;;;;;;;5086539;28;20488;-65
2023/05/02 03:26:54;;;;;;;25.00;18.80;;;;;;;;;;5080290;28;20483;-65
2023/05/02 03:29:22;;;;;;;23.57;17.23;;;;;;;;;;5082724;28;20459;-66
2023/05/02 03:31:48;;;;;;;27.10;17.70;;;;;;;;;;5081434;28;20511;-66
2023/05/02 03:34:15;;;;;;;31.40;19.13;;;;;;;;;;5080784;28;20939;-66
2023/05/02 03:36:41;;;;;;;28.73;17.97;;;;;;;;;;5079222;28;20495;-65
2023/05/02 03:39:08;;;;;;;27.53;17.50;;;;;;;;;;5081362;28;20484;-65
2023/05/02 03:41:34;;;;;;;26.87;17.77;;;;;;;;;;5080287;28;20484;-66
2023/05/02 03:44:01;;;;;;;24.73;17.07;;;;;;;;;;5080518;28;20456;-66
2023/05/02 03:46:28;;;;;;;23.67;16.73;;;;;;;;;;5079749;28;20522;-66
2023/05/02 03:48:57;;;;;;;32.97;19.30;;;;;;;;;;5082555;28;20444;-66
2023/05/02 03:51:23;;;;;;;31.40;21.47;;;;;;;;;;5079630;28;20586;-66
2023/05/02 03:53:50;;;;;;;27.63;18.90;;;;;;;;;;5079562;28;20511;-65
2023/05/02 03:56:18;;;;;;;27.40;18.07;;;;;;;;;;5079382;28;20582;-66
2023/05/02 03:58:45;;;;;;;27.70;20.50;;;;;;;;;;5079421;28;20505;-66
2023/05/02 04:01:15;;;;;;;28.07;20.27;;;;;;;;;;5080414;28;20476;-65
2023/05/02 04:03:43;;;;;;;30.43;18.77;;;;;;;;;;5080320;28;20518;-65
2023/05/02 04:06:09;;;;;;;33.33;19.50;;;;;;;;;;5078855;28;20480;-66
2023/05/02 04:08:37;;;;;;;26.87;20.07;;;;;;;;;;5080480;28;20539;-65
2023/05/02 04:11:03;;;;;;;28.47;19.53;;;;;;;;;;5080316;28;20527;-65
2023/05/02 04:13:30;;;;;;;25.20;18.20;;;;;;;;;;5081393;28;20483;-65
2023/05/02 04:15:56;;;;;;;31.07;18.90;;;;;;;;;;5080034;28;20472;-65
2023/05/02 04:18:22;;;;;;;32.70;20.33;;;;;;;;;;5084376;28;20448;-65
2023/05/02 04:20:50;;;;;;;32.33;18.83;;;;;;;;;;5083820;28;20503;-66
2023/05/02 04:23:17;;;;;;;31.63;19.80;;;;;;;;;;5073825;28;20479;-66
2023/05/02 04:25:50;;;;;;;29.40;20.00;;;;;;;;;;5077639;28;20475;-65
2023/05/02 04:28:16;;;;;;;28.47;18.27;;;;;;;;;;5082595;28;20470;-65
2023/05/02 04:30:43;;;;;;;30.97;19.40;;;;;;;;;;5082444;28;20490;-65
2023/05/02 04:33:09;;;;;;;27.03;18.67;;;;;;;;;;5085122;28;20471;-69
2023/05/02 04:35:36;;;;;;;28.70;19.87;;;;;;;;;;5081978;28;20474;-67
2023/05/02 04:38:04;;;;;;;31.40;20.30;;;;;;;;;;5079099;28;20489;-69
2023/05/02 04:40:30;;;;;;;26.43;18.43;;;;;;;;;;5079281;28;20475;-69
2023/05/02 04:42:56;;;;;;;28.23;19.47;;;;;;;;;;5080238;28;20803;-66
2023/05/02 04:45:23;;;;;;;30.73;19.30;;;;;;;;;;5079888;28;20479;-66
2023/05/02 04:47:49;;;;;;;30.40;20.50;;;;;;;;;;5086016;28;20447;-66
2023/05/02 04:50:16;;;;;;;30.93;21.53;;;;;;;;;;5085315;28;20486;-66
2023/05/02 04:52:42;;;;;;;33.33;21.10;;;;;;;;;;5094685;28;20442;-66
2023/05/02 04:55:10;;;;;;;26.93;18.93;;;;;;;;;;5085023;28;20480;-66
2023/05/02 04:57:38;;;;;;;32.67;20.60;;;;;;;;;;5085578;28;20462;-66
2023/05/02 05:00:05;;;;;;;32.33;19.23;;;;;;;;;;5084758;28;20513;-66
2023/05/02 05:02:32;;;;;;;26.83;16.90;;;;;;;;;;5083707;28;20543;-67
2023/05/02 05:04:58;;;;;;;25.30;16.33;;;;;;;;;;5084414;28;20506;-67
2023/05/02 05:07:24;;;;;;;20.27;14.20;;;;;;;;;;5084607;28;20797;-66
2023/05/02 05:09:51;;;;;;;18.90;12.30;;;;;;;;;;5083128;28;20479;-70
2023/05/02 05:12:19;;;;;;;16.93;12.50;;;;;;;;;;5081097;28;20510;-68
2023/05/02 05:14:45;;;;;;;19.17;11.33;;;;;;;;;;5080871;28;20456;-68
2023/05/02 05:17:11;;;;;;;13.90;10.17;;;;;;;;;;5084381;28;20483;-67
2023/05/02 05:19:38;;;;;;;15.00;9.30;;;;;;;;;;5083599;28;20472;-68
2023/05/02 05:22:04;;;;;;;10.40;8.37;;;;;;;;;;5082343;28;20569;-68
2023/05/02 05:24:31;;;;;;;11.37;7.23;;;;;;;;;;5087350;28;20982;-67
2023/05/02 05:26:57;;;;;;;9.80;6.57;;;;;;;;;;5082875;28;20507;-67
2023/05/02 05:29:25;;;;;;;10.10;6.30;;;;;;;;;;5081899;28;20531;-68
2023/05/02 05:31:51;;;;;;;8.80;6.60;;;;;;;;;;5082883;28;20479;-68
2023/05/02 05:34:17;;;;;;;7.17;5.23;;;;;;;;;;5083006;28;20952;-68
2023/05/02 05:36:44;;;;;;;6.97;5.70;;;;;;;;;;5084665;28;20512;-68
2023/05/02 05:39:10;;;;;;;9.20;4.80;;;;;;;;;;5083297;28;20470;-68
2023/05/02 05:41:37;;;;;;;6.13;4.53;;;;;;;;;;5081108;28;20492;-66
2023/05/02 05:44:04;;;;;;;6.30;4.53;;;;;;;;;;5080496;28;20483;-68
2023/05/02 05:46:31;;;;;;;8.03;4.40;;;;;;;;;;5080147;28;20992;-68
2023/05/02 05:48:58;;;;;;;5.30;4.80;;;;;;;;;;5076730;28;20498;-68
2023/05/02 05:51:26;;;;;;;5.50;5.00;;;;;;;;;;5090199;28;20566;-69
2023/05/02 05:53:53;;;;;;;5.50;4.90;;;;;;;;;;5081404;28;20970;-69
2023/05/02 05:56:20;;;;;;;7.37;5.30;;;;;;;;;;5075754;28;20608;-69
2023/05/02 05:58:47;;;;;;;6.87;6.13;;;;;;;;;;5079880;28;20455;-69
2023/05/02 06:01:14;;;;;;;9.07;4.90;;;;;;;;;;5079383;28;20510;-65
2023/05/02 06:03:41;;;;;;;7.97;5.70;;;;;;;;;;5081786;28;20912;-64
2023/05/02 06:06:08;;;;;;;6.73;5.00;;;;;;;;;;5079329;28;20487;-65
2023/05/02 06:08:34;;;;;;;9.47;5.87;;;;;;;;;;5082702;28;20482;-66
2023/05/02 06:11:01;;;;;;;11.00;6.60;;;;;;;;;;5084606;28;20487;-65
2023/05/02 06:13:27;;;;;;;9.97;6.20;;;;;;;;;;5079247;28;20505;-64
2023/05/02 06:15:53;;;;;;;10.53;6.57;;;;;;;;;;5082905;28;20715;-65
2023/05/02 06:18:20;;;;;;;10.60;6.70;;;;;;;;;;5087999;28;20892;-65
2023/05/02 06:20:48;;;;;;;6.73;5.57;;;;;;;;;;5079598;28;20478;-65
2023/05/02 06:23:14;;;;;;;7.20;5.97;;;;;;;;;;5079378;28;20492;-65
2023/05/02 06:25:41;;;;;;;9.60;5.50;;;;;;;;;;5083873;28;20525;-65
2023/05/02 06:28:08;;;;;;;7.40;5.20;;;;;;;;;;5082621;28;20474;-65
2023/05/02 06:30:35;;;;;;;7.33;4.67;;;;;;;;;;5088606;28;20494;-65
2023/05/02 06:33:03;;;;;;;7.30;5.23;;;;;;;;;;5081713;28;20471;-66
2023/05/02 06:35:30;;;;;;;11.30;5.63;;;;;;;;;;5084602;28;20505;-65
2023/05/02 06:37:58;;;;;;;8.67;5.37;;;;;;;;;;5081669;28;20456;-65
2023/05/02 06:40:24;;;;;;;8.80;5.70;;;;;;;;;;5079301;28;20536;-65
2023/05/02 06:42:50;;;;;;;7.07;5.10;;;;;;;;;;5080474;28;20483;-65
2023/05/02 06:45:17;;;;;;;11.40;5.07;;;;;;;;;;5089383;28;20479;-65
2023/05/02 06:47:43;;;;;;;8.07;4.60;;;;;;;;;;5080917;28;20468;-66
2023/05/02 06:50:10;;;;;;;12.13;6.40;;;;;;;;;;5080511;28;20451;-68
2023/05/02 06:52:37;;;;;;;7.47;4.70;;;;;;;;;;5086598;28;20868;-66
2023/05/02 06:55:05;;;;;;;8.80;4.27;;;;;;;;;;5080557;28;21019;-66
2023/05/02 06:57:32;;;;;;;7.17;4.13;;;;;;;;;;5080461;28;20463;-64
2023/05/02 06:59:58;;;;;;;9.03;4.40;;;;;;;;;;5084964;28;20459;-64
2023/05/02 07:02:24;;;;;;;7.50;3.87;;;;;;;;;;5079791;28;20475;-65
2023/05/02 07:04:51;;;;;;;6.83;3.80;;;;;;;;;;5077090;28;20521;-65
2023/05/02 07:07:20;;;;;;;6.03;4.07;;;;;;;;;;5083584;28;20486;-64
2023/05/02 07:09:46;;;;;;;3.70;3.27;;;;;;;;;;5085226;28;20446;-66
2023/05/02 07:12:14;;;;;;;6.50;3.70;;;;;;;;;;5083819;28;20479;-65
2023/05/02 07:14:41;;;;;;;7.30;3.47;;;;;;;;;;5080593;28;20466;-64
2023/05/02 07:17:08;;;;;;;6.13;3.30;;;;;;;;;;5079854;28;20499;-66
2023/05/02 07:19:34;;;;;;;9.97;5.03;;;;;;;;;;5067025;28;20478;-66
2023/05/02 07:22:01;;;;;;;9.57;4.60;;;;;;;;;;5079454;28;20925;-65
2023/05/02 07:24:27;;;;;;;4.83;3.90;;;;;;;;;;5080371;28;20519;-64
2023/05/02 07:26:53;;;;;;;10.13;4.60;;;;;;;;;;5081809;28;20497;-65
2023/05/02 07:29:21;;;;;;;7.23;4.33;;;;;;;;;;5079994;28;20490;-65
2023/05/02 07:31:48;;;;;;;11.33;5.00;;;;;;;;;;5088917;28;20536;-65
2023/05/02 07:34:14;;;;;;;6.90;3.90;;;;;;;;;;5083290;28;20455;-65
2023/05/02 07:36:40;;;;;;;9.80;4.97;;;;;;;;;;5083634;28;20836;-65
2023/05/02 07:39:07;;;;;;;8.43;4.17;;;;;;;;;;5085089;28;20482;-65
2023/05/02 07:41:33;;;;;;;8.23;4.57;;;;;;;;;;5078491;28;20643;-65
2023/05/02 07:44:00;;;;;;;10.83;5.70;;;;;;;;;;5078137;28;20545;-66
2023/05/02 07:46:28;;;;;;;15.03;6.60;;;;;;;;;;5080906;28;20498;-65
2023/05/02 07:48:54;;;;;;;11.07;6.50;;;;;;;;;;5079880;28;20881;-65
2023/05/02 07:51:21;;;;;;;18.33;6.17;;;;;;;;;;5083628;28;20477;-66
2023/05/02 07:53:51;;;;;;;16.60;7.10;;;;;;;;;;5080861;28;20444;-64
2023/05/02 07:56:18;;;;;;;12.83;4.93;;;;;;;;;;5084539;28;20475;-64
2023/05/02 07:58:44;;;;;;;11.00;5.50;;;;;;;;;;5080106;28;20444;-65
2023/05/02 08:01:11;;;;;;;12.00;5.60;;;;;;;;;;5087105;28;20502;-66
2023/05/02 08:03:39;;;;;;;12.83;5.57;;;;;;;;;;5086316;28;20505;-66
2023/05/02 08:06:05;;;;;;;16.87;6.07;;;;;;;;;;5079372;28;20471;-65
2023/05/02 08:08:32;;;;;;;12.73;6.30;;;;;;;;;;5080598;28;20458;-65
2023/05/02 08:10:58;;;;;;;11.80;5.03;;;;;;;;;;5082770;28;20472;-65
2023/05/02 08:13:26;;;;;;;10.90;5.30;;;;;;;;;;5082782;28;20461;-65
2023/05/02 08:15:56;;;;;;;10.20;4.43;;;;;;;;;;5079367;28;20483;-66
2023/05/02 08:18:23;;;;;;;17.13;5.50;;;;;;;;;;5080402;28;20480;-65
2023/05/02 08:20:51;;;;;;;13.13;4.80;;;;;;;;;;5078958;28;20468;-66
2023/05/02 08:23:18;;;;;;;17.17;4.63;;;;;;;;;;5083819;28;20541;-65
2023/05/02 08:25:44;;;;;;;13.43;4.80;;;;;;;;;;5082854;28;20471;-65
2023/05/02 08:28:11;;;;;;;9.57;5.27;;;;;;;;;;5096624;28;20451;-65
2023/05/02 08:30:37;;;;;;;12.40;4.40;;;;;;;;;;5083501;28;20471;-66
2023/05/02 08:33:04;;;;;;;9.40;4.27;;;;;;;;;;5083050;28;20498;-65
2023/05/02 08:35:30;;;;;;;16.60;4.67;;;;;;;;;;5083100;28;20476;-66
2023/05/02 14:09:16;;;;;;;11.00;5.27;;;;;;;;;;5138398;27;20350;-81
2023/05/02 14:11:46;;;;;;;13.90;4.57;;;;;;;;;;5139643;27;20481;-80
2023/05/02 14:14:12;;;;;;;9.87;4.27;;;;;;;;;;5149897;27;20442;-82
2023/05/02 14:16:39;;;;;;;6.57;4.90;;;;;;;;;;5053878;27;20449;-79
2023/05/02 14:19:05;;;;;;;8.83;4.83;;;;;;;;;;5145073;27;20958;-78
2023/05/02 14:21:31;;;;;;;7.87;4.87;;;;;;;;;;5138081;27;20453;-79
2023/05/02 14:23:59;;;;;;;16.00;4.60;;;;;;;;;;5137615;28;20488;-79
2023/05/02 14:26:26;;;;;;;7.43;4.70;;;;;;;;;;5138622;27;20480;-79
2023/05/02 14:28:53;;;;;;;8.37;3.93;;;;;;;;;;5138091;27;20485;-79
2023/05/02 14:31:19;;;;;;;7.17;4.40;;;;;;;;;;5137260;28;20976;-79
2023/05/02 14:33:46;;;;;;;6.33;4.40;;;;;;;;;;5140769;27;20945;-80
2023/05/02 14:36:12;;;;;;;7.83;4.13;;;;;;;;;;5141484;27;20996;-80
2023/05/02 14:38:39;;;;;;;12.63;5.17;;;;;;;;;;5139459;27;20480;-80
2023/05/02 14:41:05;;;;;;;7.50;4.13;;;;;;;;;;5141930;27;20469;-80
2023/05/02 14:43:33;;;;;;;7.77;4.87;;;;;;;;;;5138656;27;20540;-80
2023/05/02 14:46:00;;;;;;;6.10;4.13;;;;;;;;;;5137205;28;20805;-81
2023/05/02 14:48:26;;;;;;;7.90;4.10;;;;;;;;;;5142847;27;20508;-78
2023/05/02 14:50:53;;;;;;;6.53;3.90;;;;;;;;;;5138498;27;20455;-81
2023/05/02 14:53:20;;;;;;;6.33;4.13;;;;;;;;;;5137230;28;20454;-81
2023/05/02 14:55:47;;;;;;;11.00;4.50;;;;;;;;;;5135748;28;20468;-80
2023/05/02 14:58:19;;;;;;;6.73;4.17;;;;;;;;;;5146918;27;20560;-79
2023/05/02 15:00:47;;;;;;;6.00;4.10;;;;;;;;;;5138375;28;20457;-81
2023/05/02 15:03:13;;;;;;;6.47;4.50;;;;;;;;;;5139183;27;21021;-81
2023/05/02 15:05:40;;;;;;;6.30;3.80;;;;;;;;;;5137733;28;20829;-81
2023/05/02 15:08:07;;;;;;;8.47;3.67;;;;;;;;;;5136472;28;20497;-83
2023/05/02 15:10:36;;;;;;;9.27;3.80;;;;;;;;;;5143290;27;20478;-82
2023/05/02 15:13:03;;;;;;;6.73;3.50;;;;;;;;;;5139286;27;20461;-83
2023/05/02 15:15:29;;;;;;;8.33;4.60;;;;;;;;;;5138028;27;20454;-83
2023/05/02 15:17:57;;;;;;;8.17;3.80;;;;;;;;;;5138523;27;20488;-83
2023/05/02 15:20:24;;;;;;;4.70;3.93;;;;;;;;;;5125444;28;20446;-83
2023/05/02 15:22:50;;;;;;;6.30;4.17;;;;;;;;;;5124866;27;20842;-84
2023/05/02 15:25:17;;;;;;;5.93;3.60;;;;;;;;;;5123968;27;20446;-83
2023/05/02 15:27:43;;;;;;;6.73;3.37;;;;;;;;;;5124433;28;20465;-84
2023/05/02 15:30:10;;;;;;;6.93;3.77;;;;;;;;;;5123388;28;20450;-81
2023/05/02 15:32:37;;;;;;;5.07;3.63;;;;;;;;;;5124236;27;20489;-83
2023/05/02 15:35:06;;;;;;;4.40;3.30;;;;;;;;;;5124788;28;20434;-83
2023/05/02 15:37:33;;;;;;;6.03;3.30;;;;;;;;;;5132934;27;20494;-81
2023/05/02 15:40:00;;;;;;;4.40;3.37;;;;;;;;;;5123880;28;21219;-82
2023/05/02 15:42:26;;;;;;;7.87;3.60;;;;;;;;;;5120216;27;20450;-81
2023/05/02 15:44:53;;;;;;;4.10;3.50;;;;;;;;;;5123313;27;21177;-82
2023/05/02 15:47:21;;;;;;;8.50;4.00;;;;;;;;;;5126193;27;20454;-80
2023/05/02 15:49:50;;;;;;;8.30;4.13;;;;;;;;;;5122904;28;20454;-82
2023/05/02 15:52:18;;;;;;;5.97;4.13;;;;;;;;;;5122734;28;20454;-80
2023/05/02 15:54:45;;;;;;;6.10;3.77;;;;;;;;;;5128188;27;20574;-81
2023/05/02 15:57:12;;;;;;;5.53;3.87;;;;;;;;;;5124557;27;20458;-83
2023/05/02 15:59:38;;;;;;;10.00;4.90;;;;;;;;;;5124530;27;20850;-83
2023/05/02 16:02:05;;;;;;;11.73;4.40;;;;;;;;;;5126962;27;21326;-81
2023/05/02 16:04:33;;;;;;;5.67;3.90;;;;;;;;;;5118518;27;20450;-83
2023/05/02 16:07:00;;;;;;;5.30;3.63;;;;;;;;;;5119385;28;20447;-84
2023/05/02 16:09:29;;;;;;;6.60;4.33;;;;;;;;;;5131007;27;20485;-84
2023/05/02 16:11:56;;;;;;;11.13;4.10;;;;;;;;;;5122930;27;20465;-83
2023/05/02 16:14:24;;;;;;;8.60;5.10;;;;;;;;;;5121284;27;20458;-80
2023/05/02 16:16:51;;;;;;;6.00;3.57;;;;;;;;;;5129205;27;20494;-82
2023/05/02 16:19:18;;;;;;;5.20;4.10;;;;;;;;;;5130897;27;20553;-82
2023/05/02 16:21:44;;;;;;;4.60;3.23;;;;;;;;;;5125571;27;20902;-82
2023/05/02 16:24:11;;;;;;;3.80;3.40;;;;;;;;;;5121668;28;20469;-82
2023/05/02 16:26:39;;;;;;;5.90;2.97;;;;;;;;;;5121735;28;20450;-79
2023/05/02 16:29:05;;;;;;;9.57;3.60;;;;;;;;;;5122797;27;21045;-80
2023/05/02 16:31:32;;;;;;;5.20;4.43;;;;;;;;;;5124396;27;20449;-82
2023/05/02 16:33:58;;;;;;;4.83;2.90;;;;;;;;;;5131989;27;20442;-82
2023/05/02 16:36:25;;;;;;;6.30;3.17;;;;;;;;;;5130269;27;20483;-81
2023/05/02 16:38:51;;;;;;;6.77;3.10;;;;;;;;;;5121629;27;20497;-81
2023/05/02 16:41:18;;;;;;;5.00;3.43;;;;;;;;;;5122127;28;20503;-83
2023/05/02 16:43:47;;;;;;;5.33;3.10;;;;;;;;;;5120083;28;20466;-83
2023/05/02 16:46:13;;;;;;;5.27;2.90;;;;;;;;;;5122565;27;20446;-83
2023/05/02 16:48:40;;;;;;;7.67;2.60;;;;;;;;;;5123248;27;20450;-79
2023/05/02 16:51:06;;;;;;;4.00;2.90;;;;;;;;;;5122491;28;20446;-81
2023/05/02 16:53:33;;;;;;;4.23;2.37;;;;;;;;;;5120752;28;20527;-81
2023/05/02 16:55:59;;;;;;;3.70;3.20;;;;;;;;;;5121649;28;21009;-82
2023/05/02 16:58:27;;;;;;;4.13;2.70;;;;;;;;;;5121857;28;20478;-82
2023/05/02 17:00:55;;;;;;;2.27;2.07;;;;;;;;;;5113255;28;20454;-82
2023/05/02 17:03:21;;;;;;;2.47;2.20;;;;;;;;;;5124091;27;20458;-82
2023/05/02 17:05:48;;;;;;;3.27;2.43;;;;;;;;;;5121981;28;20474;-83
2023/05/02 17:08:15;;;;;;;5.33;2.83;;;;;;;;;;5123751;27;20487;-83
2023/05/02 17:10:42;;;;;;;3.90;2.50;;;;;;;;;;5120339;27;20458;-80
2023/05/02 17:13:08;;;;;;;4.40;2.70;;;;;;;;;;5124692;27;21277;-82
2023/05/02 17:15:37;;;;;;;5.80;2.43;;;;;;;;;;5120801;28;20450;-82
2023/05/02 17:18:05;;;;;;;3.80;2.40;;;;;;;;;;5121299;27;20490;-83
2023/05/02 17:20:31;;;;;;;3.17;2.10;;;;;;;;;;5125997;27;20481;-80
2023/05/02 17:22:59;;;;;;;5.53;2.13;;;;;;;;;;5129798;27;20454;-81
2023/05/02 17:25:25;;;;;;;4.90;2.50;;;;;;;;;;5124883;27;20481;-81
2023/05/02 17:27:52;;;;;;;3.40;2.60;;;;;;;;;;5123060;27;20458;-83
2023/05/02 17:30:18;;;;;;;4.43;3.03;;;;;;;;;;5116775;28;20936;-81
2023/05/02 17:32:45;;;;;;;5.60;2.80;;;;;;;;;;5117407;28;20516;-83
2023/05/02 17:35:13;;;;;;;6.60;3.30;;;;;;;;;;5116490;28;20446;-82
2023/05/02 17:37:39;;;;;;;5.30;4.00;;;;;;;;;;5112527;28;20530;-82
2023/05/02 17:40:06;;;;;;;5.53;2.50;;;;;;;;;;5116792;28;20478;-82
2023/05/02 17:42:33;;;;;;;3.70;2.70;;;;;;;;;;5116796;27;20484;-79
2023/05/02 17:44:59;;;;;;;7.37;3.03;;;;;;;;;;5115013;27;20458;-82
2023/05/02 17:47:26;;;;;;;5.23;3.00;;;;;;;;;;5125065;27;20448;-82
2023/05/02 17:49:53;;;;;;;2.93;2.63;;;;;;;;;;5129001;27;20443;-81
2023/05/02 17:52:21;;;;;;;5.00;2.17;;;;;;;;;;5126736;27;20626;-81
2023/05/02 17:54:47;;;;;;;3.67;2.70;;;;;;;;;;5123484;27;21062;-81
2023/05/02 17:57:14;;;;;;;4.43;2.37;;;;;;;;;;5133746;27;20460;-80
2023/05/02 17:59:41;;;;;;;4.00;2.60;;;;;;;;;;5126226;27;20489;-81
2023/05/02 18:02:08;;;;;;;5.23;2.60;;;;;;;;;;5126962;27;20498;-81
2023/05/02 18:04:34;;;;;;;6.73;2.50;;;;;;;;;;5118639;28;20477;-80
2023/05/02 18:07:01;;;;;;;5.80;2.60;;;;;;;;;;5112086;28;20508;-82
2023/05/02 18:09:29;;;;;;;5.37;2.90;;;;;;;;;;5118214;28;20454;-82
2023/05/02 18:11:56;;;;;;;3.23;2.50;;;;;;;;;;5115965;28;20997;-79
2023/05/02 18:14:23;;;;;;;5.17;3.03;;;;;;;;;;5117957;28;20455;-79
2023/05/02 18:16:49;;;;;;;7.90;2.67;;;;;;;;;;5120104;28;20458;-83
2023/05/02 18:19:16;;;;;;;3.60;2.33;;;;;;;;;;5121768;28;20482;-81
2023/05/02 18:21:45;;;;;;;2.80;2.40;;;;;;;;;;5118564;28;20442;-83
2023/05/02 18:24:11;;;;;;;4.90;2.40;;;;;;;;;;5119179;28;20566;-77
2023/05/02 18:26:39;;;;;;;4.47;2.83;;;;;;;;;;5119523;28;20975;-80
2023/05/02 18:29:05;;;;;;;2.77;2.20;;;;;;;;;;5122348;28;20466;-82
2023/05/02 18:31:33;;;;;;;3.03;2.27;;;;;;;;;;5119665;28;21156;-82
2023/05/02 18:34:00;;;;;;;5.60;2.83;;;;;;;;;;5111581;28;20454;-83
2023/05/02 18:36:27;;;;;;;3.63;2.47;;;;;;;;;;5116022;28;20468;-80
2023/05/02 18:38:53;;;;;;;2.70;2.27;;;;;;;;;;5115437;28;21041;-77
2023/05/02 18:41:21;;;;;;;8.30;2.37;;;;;;;;;;5120053;28;20442;-78
2023/05/02 18:43:49;;;;;;;5.33;2.50;;;;;;;;;;5128354;28;20467;-78
2023/05/02 18:46:16;;;;;;;3.20;2.43;;;;;;;;;;5123110;28;20447;-77
2023/05/02 18:48:42;;;;;;;5.27;3.07;;;;;;;;;;5119817;28;20450;-77
2023/05/02 18:51:09;;;;;;;3.83;2.43;;;;;;;;;;5123287;28;20445;-76
2023/05/02 18:53:36;;;;;;;5.93;4.63;;;;;;;;;;5117671;27;20468;-78
2023/05/02 18:56:02;;;;;;;4.00;2.47;;;;;;;;;;5127279;27;20469;-78
2023/05/02 18:58:28;;;;;;;3.70;2.50;;;;;;;;;;5114905;27;20481;-78
2023/05/02 19:00:56;;;;;;;4.40;2.20;;;;;;;;;;5125278;27;20456;-77
2023/05/02 19:03:24;;;;;;;4.00;2.40;;;;;;;;;;5123921;28;20655;-78
2023/05/02 19:05:50;;;;;;;5.70;2.60;;;;;;;;;;5119741;28;20450;-78
2023/05/02 19:08:17;;;;;;;4.03;2.33;;;;;;;;;;5121737;27;20547;-77
2023/05/02 19:10:43;;;;;;;3.70;2.37;;;;;;;;;;5110111;27;20997;-77
2023/05/02 19:13:10;;;;;;;2.97;1.97;;;;;;;;;;5118099;28;20819;-76
2023/05/02 19:15:36;;;;;;;2.70;2.07;;;;;;;;;;5123220;27;21098;-78
2023/05/02 19:18:04;;;;;;;3.40;2.10;;;;;;;;;;5127969;27;20457;-77
2023/05/02 19:20:30;;;;;;;4.33;2.17;;;;;;;;;;5118039;28;20504;-77
2023/05/02 19:22:57;;;;;;;3.43;2.43;;;;;;;;;;5124318;27;20865;-78
2023/05/02 19:25:24;;;;;;;4.57;2.20;;;;;;;;;;5122216;28;20485;-79
2023/05/02 19:27:51;;;;;;;3.03;1.87;;;;;;;;;;5121545;28;20442;-79
2023/05/02 19:30:18;;;;;;;2.97;2.27;;;;;;;;;;5122008;27;20454;-80
2023/05/02 19:32:44;;;;;;;3.63;2.60;;;;;;;;;;5123005;28;20523;-79
2023/05/02 19:35:12;;;;;;;3.30;2.40;;;;;;;;;;5121906;28;20458;-79
2023/05/02 19:37:39;;;;;;;3.13;2.63;;;;;;;;;;5118170;27;20519;-79
2023/05/02 19:40:06;;;;;;;6.13;2.20;;;;;;;;;;5123275;27;20932;-77
2023/05/02 19:42:33;;;;;;;4.10;2.20;;;;;;;;;;5121039;28;20507;-77
2023/05/02 19:45:00;;;;;;;9.33;3.13;;;;;;;;;;5121960;27;20465;-77
2023/05/02 19:47:26;;;;;;;6.93;2.63;;;;;;;;;;5125755;27;21012;-77
2023/05/02 19:49:53;;;;;;;4.27;2.17;;;;;;;;;;5121819;28;20453;-77
2023/05/02 19:52:21;;;;;;;4.47;2.43;;;;;;;;;;5121879;28;20446;-77
2023/05/02 19:54:50;;;;;;;5.10;2.37;;;;;;;;;;5130850;27;21026;-78
2023/05/02 19:57:17;;;;;;;3.90;2.23;;;;;;;;;;5122689;27;20499;-77
2023/05/02 19:59:43;;;;;;;5.80;2.63;;;;;;;;;;5122329;28;20519;-79
2023/05/02 20:02:10;;;;;;;7.80;2.70;;;;;;;;;;5123737;27;20445;-81
2023/05/02 20:04:37;;;;;;;5.23;2.37;;;;;;;;;;5120825;27;20446;-80